Time;durP1;ratioP1;P1;durP2;ratioP2;P2;SDS_P1;SDS_P2;PMS_P1;PMS_P2;Temp;Humidity;BMP_temperature;BMP_pressure;BME280_temperature;BME280_humidity;BME280_pressure;Samples;Min_cycle;Max_cycle;Signal;HPM_P1;HPM_P2
2022/05/23 00:00:29;;;;;;;5.72;1.92;;;;;;;;;;6315067;22;20019;-87
2022/05/23 00:03:01;;;;;;;5.63;1.85;;;;;;;;;;6315754;22;20023;-85
2022/05/23 00:05:29;;;;;;;3.25;1.65;;;;;;;;;;6288034;22;20110;-85
2022/05/23 00:08:21;;;;;;;4.78;1.98;;;;;;;;;;6313854;22;20405;-86
2022/05/23 00:10:55;;;;;;;6.97;1.80;;;;;;;;;;6317252;22;20430;-87
2022/05/23 00:13:23;;;;;;;5.53;2.00;;;;;;;;;;6288945;22;20027;-87
2022/05/23 00:15:51;;;;;;;8.77;2.53;;;;;;;;;;6314766;22;20065;-87
2022/05/23 00:18:25;;;;;;;4.65;1.80;;;;;;;;;;6314129;22;20061;-86
2022/05/23 00:20:53;;;;;;;6.35;2.65;;;;;;;;;;6303771;22;20027;-87
2022/05/23 00:23:25;;;;;;;5.22;1.90;;;;;;;;;;6282436;22;20453;-86
2022/05/23 00:25:53;;;;;;;4.03;1.80;;;;;;;;;;6306796;22;20025;-87
2022/05/23 00:28:25;;;;;;;7.60;1.98;;;;;;;;;;6317483;22;20012;-87
2022/05/23 00:36:33;;;;;;;7.30;1.90;;;;;;;;;;6307630;22;20019;-89
2022/05/23 00:39:03;;;;;;;5.95;2.05;;;;;;;;;;6318206;22;20026;-88
2022/05/23 00:44:37;;;;;;;5.35;1.83;;;;;;;;;;6318981;22;20022;-89
2022/05/23 00:47:23;;;;;;;2.80;1.60;;;;;;;;;;6318983;22;20034;-88
2022/05/23 00:49:51;;;;;;;6.18;1.70;;;;;;;;;;6318239;22;20015;-88
2022/05/23 00:52:32;;;;;;;7.93;2.00;;;;;;;;;;6280307;22;20134;-87
2022/05/23 00:55:05;;;;;;;5.72;1.80;;;;;;;;;;6313540;22;20015;-86
2022/05/23 00:57:41;;;;;;;4.20;1.58;;;;;;;;;;6278893;22;20023;-92
2022/05/23 01:00:10;;;;;;;5.72;1.67;;;;;;;;;;6293069;22;20499;-92
2022/05/23 01:02:47;;;;;;;6.40;1.90;;;;;;;;;;6257680;22;20453;-93
2022/05/23 01:05:15;;;;;;;4.45;2.00;;;;;;;;;;6308890;22;20019;-92
2022/05/23 01:07:47;;;;;;;4.82;1.75;;;;;;;;;;6283020;22;20027;-93
2022/05/23 01:10:15;;;;;;;5.43;1.90;;;;;;;;;;6255145;22;20026;-88
2022/05/23 01:12:45;;;;;;;4.35;2.08;;;;;;;;;;6314891;22;20105;-87
2022/05/23 01:15:21;;;;;;;4.85;2.00;;;;;;;;;;6307038;22;20330;-92
2022/05/23 01:18:14;;;;;;;5.57;2.30;;;;;;;;;;6298428;22;20009;-92
2022/05/23 01:20:45;;;;;;;5.80;1.90;;;;;;;;;;6318378;22;20015;-92
2022/05/23 01:23:41;;;;;;;3.85;1.90;;;;;;;;;;6308293;22;20330;-92
2022/05/23 01:26:27;;;;;;;5.45;1.90;;;;;;;;;;6297912;22;20075;-96
2022/05/23 01:29:17;;;;;;;7.55;2.13;;;;;;;;;;6280064;22;20034;-96
2022/05/23 01:32:11;;;;;;;4.97;1.67;;;;;;;;;;6276692;22;20030;-96
2022/05/23 01:35:10;;;;;;;6.18;1.85;;;;;;;;;;6263296;22;20023;-96
2022/05/23 01:41:01;;;;;;;9.25;2.70;;;;;;;;;;6288496;22;20031;-96
2022/05/23 01:43:34;;;;;;;6.20;2.38;;;;;;;;;;6315989;22;20034;-86
2022/05/23 01:46:24;;;;;;;5.35;2.00;;;;;;;;;;6317786;22;20019;-87
2022/05/23 01:49:15;;;;;;;5.60;2.10;;;;;;;;;;6296909;22;20011;-87
2022/05/23 01:51:43;;;;;;;7.18;2.30;;;;;;;;;;6293023;22;20429;-88
2022/05/23 01:54:19;;;;;;;7.53;2.88;;;;;;;;;;6296495;22;20026;-90
2022/05/23 01:57:12;;;;;;;4.22;2.35;;;;;;;;;;6299950;22;20011;-90
2022/05/23 02:02:51;;;;;;;5.88;2.20;;;;;;;;;;6309929;22;20030;-89
2022/05/23 02:05:25;;;;;;;6.35;2.25;;;;;;;;;;6282172;22;20342;-88
2022/05/23 02:08:00;;;;;;;5.38;2.50;;;;;;;;;;6282037;22;20081;-88
2022/05/23 02:10:30;;;;;;;7.28;2.85;;;;;;;;;;6293628;22;20021;-88
2022/05/23 02:13:04;;;;;;;10.40;2.20;;;;;;;;;;6283453;22;20372;-88
2022/05/23 02:15:41;;;;;;;7.40;2.40;;;;;;;;;;6283078;22;20033;-90
2022/05/23 02:18:30;;;;;;;7.15;2.72;;;;;;;;;;6319891;22;20373;-89
2022/05/23 02:21:00;;;;;;;5.25;2.60;;;;;;;;;;6293784;22;20015;-87
2022/05/23 02:23:30;;;;;;;6.05;2.53;;;;;;;;;;6283595;22;20407;-90
2022/05/23 02:26:00;;;;;;;4.95;1.85;;;;;;;;;;6257053;22;20019;-86
2022/05/23 02:28:49;;;;;;;6.35;2.42;;;;;;;;;;6316838;22;20019;-87
2022/05/23 02:31:26;;;;;;;5.47;2.33;;;;;;;;;;6317189;22;20023;-89
2022/05/23 02:34:05;;;;;;;4.28;2.10;;;;;;;;;;6296322;22;20037;-88
2022/05/23 02:36:39;;;;;;;5.70;1.83;;;;;;;;;;6294222;22;20019;-89
2022/05/23 02:39:07;;;;;;;8.68;2.22;;;;;;;;;;6319190;22;20069;-89
2022/05/23 02:44:29;;;;;;;5.07;2.15;;;;;;;;;;6315954;22;20015;-86
2022/05/23 02:47:45;;;;;;;5.50;2.08;;;;;;;;;;6291965;22;20054;-92
2022/05/23 02:50:13;;;;;;;7.47;2.63;;;;;;;;;;6294703;22;20022;-92
2022/05/23 02:55:51;;;;;;;4.78;2.00;;;;;;;;;;6244609;22;20027;-92
2022/05/23 02:58:19;;;;;;;5.55;2.30;;;;;;;;;;6245126;22;20461;-93
2022/05/23 03:00:47;;;;;;;7.25;2.28;;;;;;;;;;6245453;22;20033;-93
2022/05/23 03:03:15;;;;;;;5.18;2.33;;;;;;;;;;6220785;23;20020;-93
2022/05/23 03:06:09;;;;;;;3.85;2.10;;;;;;;;;;6275375;22;20051;-93
2022/05/23 03:08:45;;;;;;;7.45;2.30;;;;;;;;;;6245859;22;20024;-93
2022/05/23 03:11:24;;;;;;;5.30;2.05;;;;;;;;;;6271452;22;20335;-92
2022/05/23 03:13:54;;;;;;;5.78;2.30;;;;;;;;;;6270287;22;20073;-92
2022/05/23 03:16:21;;;;;;;6.93;2.67;;;;;;;;;;6255082;23;20099;-93
2022/05/23 03:18:49;;;;;;;4.43;2.22;;;;;;;;;;6254890;23;20383;-92
2022/05/23 03:27:03;;;;;;;8.25;2.20;;;;;;;;;;6255690;23;20043;-92
2022/05/23 03:29:39;;;;;;;5.93;2.10;;;;;;;;;;6281700;22;20046;-92
2022/05/23 03:32:36;;;;;;;4.57;2.30;;;;;;;;;;6250706;22;20024;-92
2022/05/23 03:35:03;;;;;;;4.05;1.95;;;;;;;;;;6254082;23;20031;-92
2022/05/23 03:37:31;;;;;;;4.80;2.40;;;;;;;;;;6219188;23;20350;-92
2022/05/23 03:40:07;;;;;;;5.03;2.38;;;;;;;;;;6256623;23;20016;-93
2022/05/23 03:42:42;;;;;;;4.93;2.30;;;;;;;;;;6195918;23;20055;-93
2022/05/23 03:48:08;;;;;;;4.60;2.30;;;;;;;;;;6255506;23;20036;-93
2022/05/23 03:50:36;;;;;;;4.07;2.38;;;;;;;;;;6255784;23;20040;-92
2022/05/23 03:53:11;;;;;;;6.28;2.33;;;;;;;;;;6218943;23;20025;-92
2022/05/23 03:55:51;;;;;;;6.68;2.45;;;;;;;;;;6242483;23;20020;-91
2022/05/23 03:58:43;;;;;;;7.90;3.00;;;;;;;;;;6219954;23;20521;-92
2022/05/23 04:01:22;;;;;;;4.80;2.03;;;;;;;;;;6244562;23;20024;-92
2022/05/23 04:03:59;;;;;;;7.82;2.20;;;;;;;;;;6243899;23;20035;-92
2022/05/23 04:06:38;;;;;;;3.65;2.15;;;;;;;;;;6279580;22;20342;-92
2022/05/23 04:09:07;;;;;;;5.13;1.95;;;;;;;;;;6269238;22;20098;-92
2022/05/23 04:11:44;;;;;;;7.07;2.00;;;;;;;;;;6247002;22;20101;-92
2022/05/23 04:14:13;;;;;;;3.67;1.98;;;;;;;;;;6280673;22;20016;-92
2022/05/23 04:16:45;;;;;;;3.92;2.40;;;;;;;;;;6219935;23;20020;-92
2022/05/23 04:19:16;;;;;;;6.40;2.08;;;;;;;;;;6255514;23;20016;-92
2022/05/23 04:22:09;;;;;;;4.95;2.22;;;;;;;;;;6274383;22;20491;-91
2022/05/23 04:24:45;;;;;;;4.35;1.88;;;;;;;;;;6218998;23;20032;-92
2022/05/23 04:27:19;;;;;;;4.55;1.90;;;;;;;;;;6254068;23;20012;-92
2022/05/23 04:29:50;;;;;;;5.15;2.17;;;;;;;;;;6244043;23;20066;-92
2022/05/23 04:35:15;;;;;;;3.30;1.55;;;;;;;;;;6243865;23;20024;-92
2022/05/23 04:37:48;;;;;;;5.28;2.25;;;;;;;;;;6269372;22;20070;-91
2022/05/23 04:40:21;;;;;;;7.68;2.10;;;;;;;;;;6243900;23;20074;-91
2022/05/23 04:42:49;;;;;;;5.70;1.85;;;;;;;;;;6243714;23;20024;-91
2022/05/23 04:45:22;;;;;;;4.82;1.92;;;;;;;;;;6268441;22;20028;-91
2022/05/23 04:51:01;;;;;;;4.18;2.10;;;;;;;;;;6219114;23;20112;-92
2022/05/23 04:53:53;;;;;;;3.67;1.85;;;;;;;;;;6235576;23;20089;-92
2022/05/23 04:56:22;;;;;;;3.80;1.80;;;;;;;;;;6269798;22;20031;-92
2022/05/23 04:59:03;;;;;;;7.22;2.20;;;;;;;;;;6270266;22;20024;-93
2022/05/23 05:01:31;;;;;;;3.67;2.00;;;;;;;;;;6254984;23;20433;-92
2022/05/23 05:03:59;;;;;;;8.02;2.10;;;;;;;;;;6255219;22;20096;-92
2022/05/23 05:06:33;;;;;;;6.30;2.00;;;;;;;;;;6196480;23;20024;-93
2022/05/23 05:09:01;;;;;;;4.75;1.90;;;;;;;;;;6245142;22;20028;-92
2022/05/23 05:11:29;;;;;;;4.55;2.08;;;;;;;;;;6255424;22;20020;-92
2022/05/23 05:14:11;;;;;;;5.18;1.77;;;;;;;;;;6280075;22;20046;-93
2022/05/23 05:16:45;;;;;;;6.90;1.75;;;;;;;;;;6270310;22;20016;-93
2022/05/23 05:19:15;;;;;;;2.90;1.45;;;;;;;;;;6256000;22;20016;-93
2022/05/23 05:22:03;;;;;;;4.43;2.13;;;;;;;;;;6257055;23;20019;-93
2022/05/23 05:24:55;;;;;;;4.00;1.80;;;;;;;;;;6246547;23;20020;-93
2022/05/23 05:27:37;;;;;;;6.18;1.80;;;;;;;;;;6223804;23;20389;-93
2022/05/23 05:30:08;;;;;;;6.30;1.85;;;;;;;;;;6246372;23;20034;-92
2022/05/23 05:32:48;;;;;;;5.43;1.70;;;;;;;;;;6246696;23;20418;-92
2022/05/23 05:35:55;;;;;;;3.80;1.70;;;;;;;;;;6221763;23;20426;-92
2022/05/23 05:38:32;;;;;;;4.28;2.22;;;;;;;;;;6246457;23;20417;-92
2022/05/23 05:41:11;;;;;;;3.85;1.50;;;;;;;;;;6258181;23;20032;-92
2022/05/23 05:43:46;;;;;;;5.35;1.60;;;;;;;;;;6282130;22;20495;-94
2022/05/23 05:46:25;;;;;;;3.95;1.60;;;;;;;;;;6256830;23;20438;-94
2022/05/23 05:49:03;;;;;;;5.55;1.65;;;;;;;;;;6271361;22;20517;-95
2022/05/23 05:51:32;;;;;;;3.58;1.40;;;;;;;;;;6280867;22;20024;-92
2022/05/23 05:54:28;;;;;;;2.92;1.30;;;;;;;;;;6223898;23;20031;-91
2022/05/23 05:57:03;;;;;;;4.55;1.52;;;;;;;;;;6254492;23;20027;-91
2022/05/23 05:59:31;;;;;;;4.45;2.15;;;;;;;;;;6229977;23;20462;-92
2022/05/23 06:02:09;;;;;;;4.80;1.50;;;;;;;;;;6245138;23;20338;-90
2022/05/23 06:04:39;;;;;;;4.18;1.50;;;;;;;;;;6268878;22;20042;-90
2022/05/23 06:13:11;;;;;;;3.45;1.38;;;;;;;;;;6245937;23;20408;-93
2022/05/23 06:15:55;;;;;;;6.13;2.15;;;;;;;;;;6245880;23;20020;-92
2022/05/23 06:18:35;;;;;;;4.82;1.30;;;;;;;;;;6248907;22;20032;-93
2022/05/23 06:21:09;;;;;;;2.45;1.60;;;;;;;;;;6255105;23;20020;-90
2022/05/23 06:23:43;;;;;;;3.15;1.40;;;;;;;;;;6217846;23;20020;-90
2022/05/23 06:26:50;;;;;;;4.18;1.27;;;;;;;;;;6242621;23;20082;-90
2022/05/23 06:29:38;;;;;;;4.93;1.52;;;;;;;;;;6217819;23;20461;-92
2022/05/23 06:32:33;;;;;;;3.55;1.20;;;;;;;;;;6214324;23;20533;-90
2022/05/23 06:35:25;;;;;;;3.83;1.70;;;;;;;;;;6233645;23;20012;-90
2022/05/23 06:37:53;;;;;;;3.88;1.25;;;;;;;;;;6253309;23;20122;-90
2022/05/23 06:40:41;;;;;;;2.45;1.10;;;;;;;;;;6243795;23;20068;-90
2022/05/23 06:43:27;;;;;;;2.03;0.82;;;;;;;;;;6196928;23;20067;-90
2022/05/23 06:45:56;;;;;;;4.68;1.40;;;;;;;;;;6243156;23;20028;-91
2022/05/23 06:48:39;;;;;;;3.55;1.35;;;;;;;;;;6252586;23;20016;-91
2022/05/23 06:51:15;;;;;;;2.92;1.23;;;;;;;;;;6269387;22;20030;-91
2022/05/23 06:53:47;;;;;;;2.80;1.08;;;;;;;;;;6253063;23;20024;-91
2022/05/23 06:56:32;;;;;;;3.42;1.10;;;;;;;;;;6252872;23;20335;-91
2022/05/23 06:59:01;;;;;;;4.00;1.35;;;;;;;;;;6227835;23;20016;-91
2022/05/23 07:01:44;;;;;;;4.15;1.30;;;;;;;;;;6196290;23;20102;-90
2022/05/23 07:04:11;;;;;;;5.15;1.25;;;;;;;;;;6254405;23;20020;-90
2022/05/23 07:12:27;;;;;;;3.63;1.17;;;;;;;;;;6242976;23;20036;-91
2022/05/23 07:15:19;;;;;;;4.00;1.30;;;;;;;;;;6232844;23;20024;-91
2022/05/23 07:17:48;;;;;;;2.72;1.20;;;;;;;;;;6253421;23;20031;-91
2022/05/23 07:20:21;;;;;;;3.17;1.30;;;;;;;;;;6253385;23;20086;-90
2022/05/23 07:23:15;;;;;;;3.20;1.20;;;;;;;;;;6212855;23;20035;-90
2022/05/23 07:25:47;;;;;;;3.03;1.20;;;;;;;;;;6267793;22;20031;-91
2022/05/23 07:28:39;;;;;;;4.82;1.27;;;;;;;;;;6218096;23;20028;-91
2022/05/23 07:31:13;;;;;;;3.05;1.10;;;;;;;;;;6219070;23;20050;-90
2022/05/23 07:33:46;;;;;;;3.15;1.30;;;;;;;;;;6253028;23;20020;-91
2022/05/23 07:36:21;;;;;;;5.93;1.40;;;;;;;;;;6219014;23;20442;-90
2022/05/23 07:38:53;;;;;;;3.33;1.17;;;;;;;;;;6242066;23;20024;-90
2022/05/23 07:41:41;;;;;;;4.10;1.23;;;;;;;;;;6244028;23;20141;-93
2022/05/23 07:44:11;;;;;;;1.80;0.93;;;;;;;;;;6279644;22;20461;-93
2022/05/23 07:46:42;;;;;;;3.25;1.25;;;;;;;;;;6254392;23;20016;-94
2022/05/23 07:49:09;;;;;;;3.15;1.20;;;;;;;;;;6193879;23;20079;-92
2022/05/23 07:51:39;;;;;;;4.07;1.25;;;;;;;;;;6228188;23;20074;-91
2022/05/23 08:02:48;;;;;;;2.92;1.50;;;;;;;;;;6268604;22;20028;-91
2022/05/23 08:05:23;;;;;;;3.63;1.40;;;;;;;;;;6268778;22;20020;-91
2022/05/23 08:07:55;;;;;;;3.75;1.38;;;;;;;;;;6194197;23;20031;-91
2022/05/23 08:10:25;;;;;;;4.38;1.50;;;;;;;;;;6219018;23;20027;-94
2022/05/23 08:12:57;;;;;;;3.70;1.17;;;;;;;;;;6245365;23;20345;-94
2022/05/23 08:15:31;;;;;;;5.13;1.23;;;;;;;;;;6245082;23;20027;-93
2022/05/23 08:18:07;;;;;;;4.28;1.52;;;;;;;;;;6231697;23;20019;-94
2022/05/23 08:20:38;;;;;;;3.28;1.42;;;;;;;;;;6243607;23;20515;-91
2022/05/23 08:23:11;;;;;;;2.78;1.13;;;;;;;;;;6243251;22;20441;-92
2022/05/23 08:25:43;;;;;;;3.30;1.40;;;;;;;;;;6253124;23;20020;-91
2022/05/23 08:29:01;;;;;;;3.33;1.13;;;;;;;;;;6255194;23;20004;-92
2022/05/23 08:31:41;;;;;;;3.67;1.20;;;;;;;;;;6244217;22;20020;-92
2022/05/23 08:34:39;;;;;;;3.17;1.30;;;;;;;;;;6269636;22;20023;-91
2022/05/23 08:37:09;;;;;;;8.27;1.83;;;;;;;;;;6279521;22;20047;-92
2022/05/23 08:42:56;;;;;;;4.13;1.35;;;;;;;;;;6280799;22;20615;-94
2022/05/23 08:45:55;;;;;;;5.60;1.60;;;;;;;;;;6239512;23;20437;-95
2022/05/23 08:48:47;;;;;;;3.35;1.25;;;;;;;;;;6255222;23;20434;-94
2022/05/23 08:51:39;;;;;;;3.10;1.50;;;;;;;;;;6254149;23;20012;-92
2022/05/23 08:54:18;;;;;;;3.53;1.10;;;;;;;;;;6252803;23;20019;-91
2022/05/23 08:57:09;;;;;;;2.80;1.17;;;;;;;;;;6232215;23;20015;-91
2022/05/23 08:59:47;;;;;;;5.43;1.50;;;;;;;;;;6243659;23;20052;-94
2022/05/23 09:02:27;;;;;;;3.50;1.40;;;;;;;;;;6280446;22;20016;-94
2022/05/23 09:05:02;;;;;;;4.57;1.40;;;;;;;;;;6280245;22;20024;-94
2022/05/23 09:07:44;;;;;;;7.18;1.50;;;;;;;;;;6270522;22;20414;-94
2022/05/23 09:10:18;;;;;;;3.75;1.42;;;;;;;;;;6245031;22;20456;-92
2022/05/23 09:12:50;;;;;;;6.80;1.27;;;;;;;;;;6218101;23;20020;-92
2022/05/23 09:15:17;;;;;;;5.63;1.63;;;;;;;;;;6218003;23;20055;-92
2022/05/23 09:18:02;;;;;;;2.65;1.33;;;;;;;;;;6230272;23;20012;-92
2022/05/23 09:20:59;;;;;;;4.20;1.42;;;;;;;;;;6218649;23;20024;-92
2022/05/23 09:23:30;;;;;;;6.00;1.48;;;;;;;;;;6255301;23;20068;-92
2022/05/23 09:26:09;;;;;;;2.78;1.48;;;;;;;;;;6218164;23;20103;-92
2022/05/23 09:28:38;;;;;;;5.13;1.30;;;;;;;;;;6254113;23;20012;-92
2022/05/23 09:31:38;;;;;;;3.25;1.20;;;;;;;;;;6279651;22;20020;-93
2022/05/23 09:34:27;;;;;;;4.65;1.63;;;;;;;;;;6243155;23;20345;-93
2022/05/23 09:37:10;;;;;;;3.67;1.27;;;;;;;;;;6242732;23;20020;-92
2022/05/23 09:40:05;;;;;;;4.93;2.03;;;;;;;;;;6218872;23;20035;-94
2022/05/23 09:48:27;;;;;;;3.33;1.20;;;;;;;;;;6245344;23;20020;-94
2022/05/23 09:51:07;;;;;;;2.08;1.20;;;;;;;;;;6281235;22;20016;-95
2022/05/23 09:54:02;;;;;;;5.05;1.45;;;;;;;;;;6280750;22;20012;-95
2022/05/23 09:56:34;;;;;;;4.18;1.50;;;;;;;;;;6245339;23;20450;-94
2022/05/23 09:59:31;;;;;;;3.38;1.45;;;;;;;;;;6275197;22;20020;-94
2022/05/23 10:02:20;;;;;;;5.40;1.70;;;;;;;;;;6255323;23;20333;-93
2022/05/23 10:04:53;;;;;;;5.93;1.60;;;;;;;;;;6255353;23;20087;-94
2022/05/23 10:07:33;;;;;;;4.93;1.38;;;;;;;;;;6281355;22;20016;-95
2022/05/23 10:10:19;;;;;;;6.22;2.05;;;;;;;;;;6282581;22;20024;-93
2022/05/23 10:13:22;;;;;;;8.40;1.80;;;;;;;;;;6246261;23;20107;-93
2022/05/23 10:16:01;;;;;;;7.30;2.03;;;;;;;;;;6231426;23;20030;-93
2022/05/23 10:18:35;;;;;;;3.75;1.50;;;;;;;;;;6245848;22;20107;-93
2022/05/23 10:21:24;;;;;;;4.20;1.45;;;;;;;;;;6258306;23;20024;-92
2022/05/23 10:24:26;;;;;;;4.75;1.45;;;;;;;;;;6274802;22;20026;-93
2022/05/23 10:26:59;;;;;;;6.28;2.03;;;;;;;;;;6256449;23;20090;-92
2022/05/23 10:29:56;;;;;;;4.95;1.80;;;;;;;;;;6259894;23;20020;-93
2022/05/23 10:33:06;;;;;;;5.18;1.52;;;;;;;;;;6221462;23;20074;-93
2022/05/23 10:35:44;;;;;;;5.18;1.85;;;;;;;;;;6164918;23;20025;-94
2022/05/23 10:44:59;;;;;;;4.27;1.63;;;;;;;;;;6154651;23;20104;-93
2022/05/23 10:47:45;;;;;;;3.03;1.48;;;;;;;;;;6179271;23;20026;-93
2022/05/23 10:50:16;;;;;;;4.63;1.55;;;;;;;;;;6164986;23;20481;-93
2022/05/23 10:53:10;;;;;;;3.95;1.70;;;;;;;;;;6153429;23;20026;-93
2022/05/23 10:55:46;;;;;;;5.53;2.08;;;;;;;;;;6153535;23;20388;-93
2022/05/23 10:58:36;;;;;;;5.82;1.83;;;;;;;;;;6163495;23;20031;-93
2022/05/23 11:01:30;;;;;;;3.65;1.65;;;;;;;;;;6164649;23;20021;-93
2022/05/23 11:04:25;;;;;;;5.35;1.63;;;;;;;;;;6164122;23;20029;-94
2022/05/23 11:07:44;;;;;;;8.65;1.80;;;;;;;;;;6178960;23;20032;-93
2022/05/23 11:10:32;;;;;;;6.63;1.55;;;;;;;;;;6165061;23;20021;-92
2022/05/23 11:13:47;;;;;;;7.05;1.63;;;;;;;;;;6236589;23;20008;-93
2022/05/23 11:16:47;;;;;;;4.53;1.33;;;;;;;;;;6255838;23;20039;-93
2022/05/23 11:19:24;;;;;;;6.90;1.70;;;;;;;;;;6255854;23;20389;-93
2022/05/23 11:22:02;;;;;;;5.15;1.52;;;;;;;;;;6256270;23;20434;-93
2022/05/23 11:24:45;;;;;;;3.03;1.30;;;;;;;;;;6256848;23;20096;-93
2022/05/23 11:35:59;;;;;;;4.80;1.40;;;;;;;;;;6280682;22;20016;-93
2022/05/23 11:38:29;;;;;;;6.88;1.40;;;;;;;;;;6281135;22;20438;-93
2022/05/23 11:41:06;;;;;;;4.33;1.47;;;;;;;;;;6220167;23;20323;-93
2022/05/23 11:43:35;;;;;;;5.30;1.67;;;;;;;;;;6280768;22;20471;-93
2022/05/23 11:46:10;;;;;;;3.65;1.40;;;;;;;;;;6271153;22;20024;-93
2022/05/23 11:48:39;;;;;;;4.65;1.50;;;;;;;;;;6255404;23;20012;-93
2022/05/23 11:51:23;;;;;;;7.38;1.80;;;;;;;;;;6255696;23;20062;-93
2022/05/23 11:53:57;;;;;;;4.72;2.03;;;;;;;;;;6244160;23;20016;-93
2022/05/23 11:56:36;;;;;;;3.83;1.97;;;;;;;;;;6219527;23;20021;-93
2022/05/23 11:59:09;;;;;;;3.22;1.35;;;;;;;;;;6244548;23;20405;-93
2022/05/23 12:01:38;;;;;;;5.40;1.70;;;;;;;;;;6245579;23;20054;-92
2022/05/23 12:04:14;;;;;;;3.90;1.75;;;;;;;;;;6255486;23;20333;-92
2022/05/23 12:06:47;;;;;;;4.47;1.48;;;;;;;;;;6256907;23;20016;-93
2022/05/23 12:09:18;;;;;;;5.13;1.60;;;;;;;;;;6230361;23;20012;-93
2022/05/23 12:11:50;;;;;;;5.20;1.60;;;;;;;;;;6255262;23;20043;-94
2022/05/23 12:14:25;;;;;;;3.00;1.30;;;;;;;;;;6280033;22;20024;-93
2022/05/23 12:16:56;;;;;;;6.78;1.67;;;;;;;;;;6219104;23;20492;-93
2022/05/23 12:19:40;;;;;;;4.15;1.60;;;;;;;;;;6254776;22;20039;-93
2022/05/23 12:22:38;;;;;;;7.93;2.40;;;;;;;;;;6255444;23;20016;-93
2022/05/23 12:25:11;;;;;;;5.90;1.77;;;;;;;;;;6256990;22;20016;-94
2022/05/23 12:27:57;;;;;;;8.13;1.73;;;;;;;;;;6229951;23;20043;-93
2022/05/23 12:31:04;;;;;;;3.90;1.30;;;;;;;;;;6230093;23;20020;-94
2022/05/23 12:33:32;;;;;;;;;;;;;;;;;;6256182;23;20016;-95
2022/05/23 12:36:09;;;;;;;4.40;1.50;;;;;;;;;;6220547;23;19970;-95
2022/05/23 12:39:01;;;;;;;5.88;1.80;;;;;;;;;;6255779;23;20008;-95
2022/05/23 12:41:38;;;;;;;6.40;1.70;;;;;;;;;;6280859;22;20016;-93
2022/05/23 12:44:34;;;;;;;4.43;1.50;;;;;;;;;;6280669;22;20026;-92
2022/05/23 12:47:06;;;;;;;4.00;1.60;;;;;;;;;;6219369;23;20052;-92
2022/05/23 12:50:23;;;;;;;3.53;1.48;;;;;;;;;;6255344;23;20012;-94
2022/05/23 12:53:02;;;;;;;3.28;1.52;;;;;;;;;;6254828;23;20019;-93
2022/05/23 12:56:03;;;;;;;2.90;1.60;;;;;;;;;;6269714;22;20020;-94
2022/05/23 12:59:04;;;;;;;4.20;1.67;;;;;;;;;;6244454;23;20040;-93
2022/05/23 13:04:56;;;;;;;6.53;1.75;;;;;;;;;;6270978;22;19923;-94
2022/05/23 13:07:33;;;;;;;5.28;1.80;;;;;;;;;;6244959;23;20020;-94
2022/05/23 13:10:37;;;;;;;4.43;1.50;;;;;;;;;;6255605;23;20143;-96
2022/05/23 13:13:19;;;;;;;4.75;1.60;;;;;;;;;;6195940;23;20024;-93
2022/05/23 13:15:51;;;;;;;5.70;1.80;;;;;;;;;;6220703;23;20040;-93
2022/05/23 13:24:05;;;;;;;5.93;2.13;;;;;;;;;;6245305;23;20048;-95
2022/05/23 13:26:37;;;;;;;2.55;1.08;;;;;;;;;;6256179;23;20016;-94
2022/05/23 13:29:34;;;;;;;3.17;1.63;;;;;;;;;;6257263;23;20027;-94
2022/05/23 13:32:07;;;;;;;5.88;1.88;;;;;;;;;;6245252;23;20028;-94
2022/05/23 13:34:38;;;;;;;3.90;1.60;;;;;;;;;;6245118;22;20063;-94
2022/05/23 13:37:07;;;;;;;5.47;2.00;;;;;;;;;;6245112;23;20051;-94
2022/05/23 13:39:46;;;;;;;3.22;1.40;;;;;;;;;;6280767;22;20023;-94
2022/05/23 13:42:24;;;;;;;3.15;1.48;;;;;;;;;;6231606;23;20016;-93
2022/05/23 13:44:51;;;;;;;3.03;1.30;;;;;;;;;;6246559;23;20029;-94
2022/05/23 13:47:29;;;;;;;2.60;1.60;;;;;;;;;;6257265;23;20023;-94
2022/05/23 13:50:13;;;;;;;3.53;1.67;;;;;;;;;;6257808;23;20020;-94
2022/05/23 13:52:49;;;;;;;4.80;1.80;;;;;;;;;;6272980;22;20024;-93
2022/05/23 13:55:23;;;;;;;2.63;1.40;;;;;;;;;;6273842;22;20430;-94
2022/05/23 13:58:01;;;;;;;4.07;1.58;;;;;;;;;;6282158;22;20016;-94
2022/05/23 14:00:42;;;;;;;6.53;1.75;;;;;;;;;;6259035;22;20016;-93
2022/05/23 14:03:22;;;;;;;5.50;2.05;;;;;;;;;;6220872;23;20028;-93
2022/05/23 14:05:53;;;;;;;3.88;1.60;;;;;;;;;;6257754;23;20018;-93
2022/05/23 14:08:54;;;;;;;6.88;1.98;;;;;;;;;;6245566;23;20346;-92
2022/05/23 14:11:31;;;;;;;4.10;1.60;;;;;;;;;;6256131;23;20016;-93
2022/05/23 14:14:16;;;;;;;2.80;1.27;;;;;;;;;;6281162;22;20345;-92
2022/05/23 14:16:54;;;;;;;6.03;1.80;;;;;;;;;;6281422;22;20477;-92
2022/05/23 14:19:53;;;;;;;4.32;1.60;;;;;;;;;;6220575;23;20028;-92
2022/05/23 14:22:32;;;;;;;4.10;1.60;;;;;;;;;;6219546;23;20450;-92
2022/05/23 14:25:23;;;;;;;3.38;1.98;;;;;;;;;;6256117;23;20407;-93
2022/05/23 14:27:53;;;;;;;3.67;1.80;;;;;;;;;;6218440;23;20095;-92
2022/05/23 14:30:30;;;;;;;3.80;2.00;;;;;;;;;;6255338;23;20024;-93
2022/05/23 14:33:07;;;;;;;3.60;1.73;;;;;;;;;;6255788;23;20026;-92
2022/05/23 14:35:37;;;;;;;3.33;1.60;;;;;;;;;;6257631;23;20091;-93
2022/05/23 14:38:21;;;;;;;3.40;1.60;;;;;;;;;;6256381;23;20016;-93
2022/05/23 14:40:56;;;;;;;3.58;1.70;;;;;;;;;;6245299;23;20392;-93
2022/05/23 14:43:33;;;;;;;6.13;1.85;;;;;;;;;;6257147;23;20019;-92
2022/05/23 14:46:22;;;;;;;4.78;1.52;;;;;;;;;;6281078;22;20095;-93
2022/05/23 14:48:52;;;;;;;4.95;1.65;;;;;;;;;;6257117;23;20012;-92
2022/05/23 14:51:35;;;;;;;6.25;1.70;;;;;;;;;;6245223;23;20445;-93
2022/05/23 14:57:05;;;;;;;4.88;1.60;;;;;;;;;;6280325;22;20340;-93
2022/05/23 15:03:19;;;;;;;8.52;1.90;;;;;;;;;;6234921;23;20024;-93
2022/05/23 15:06:02;;;;;;;5.78;1.63;;;;;;;;;;6245538;22;20034;-93
2022/05/23 15:09:17;;;;;;;4.07;1.63;;;;;;;;;;6215716;23;20020;-93
2022/05/23 15:12:40;;;;;;;;;;;;;;;;;;;;;
2022/05/23 15:15:29;;;;;;;5.10;1.42;;;;;;;;;;6151534;23;20095;-93
2022/05/23 15:17:57;;;;;;;2.83;1.50;;;;;;;;;;6188729;23;20029;-92
2022/05/23 15:20:31;;;;;;;4.93;1.53;;;;;;;;;;6188435;23;20025;-92
2022/05/23 15:22:59;;;;;;;4.43;1.35;;;;;;;;;;6187137;23;20033;-92
2022/05/23 15:25:27;;;;;;;3.40;1.75;;;;;;;;;;6177020;23;20088;-92
2022/05/23 15:27:55;;;;;;;3.28;1.60;;;;;;;;;;6228459;22;20028;-92
2022/05/23 15:30:25;;;;;;;5.97;1.73;;;;;;;;;;6279016;22;20016;-92
2022/05/23 15:32:53;;;;;;;4.65;1.70;;;;;;;;;;6244191;23;20135;-93
2022/05/23 15:35:23;;;;;;;3.28;1.58;;;;;;;;;;6228706;23;20016;-92
2022/05/23 15:38:15;;;;;;;6.82;1.95;;;;;;;;;;6253475;23;20434;-92
2022/05/23 15:40:44;;;;;;;3.65;1.63;;;;;;;;;;6244727;23;20020;-93
2022/05/23 15:43:14;;;;;;;7.15;1.80;;;;;;;;;;6245202;22;20354;-93
2022/05/23 15:45:50;;;;;;;2.90;1.50;;;;;;;;;;6230861;23;20016;-93
2022/05/23 15:48:43;;;;;;;5.47;1.90;;;;;;;;;;6219873;23;20024;-93
2022/05/23 15:51:22;;;;;;;3.95;1.63;;;;;;;;;;6256052;23;20066;-91
2022/05/23 15:53:51;;;;;;;2.72;1.58;;;;;;;;;;6229424;23;20020;-92
2022/05/23 15:56:20;;;;;;;2.97;1.58;;;;;;;;;;6269229;22;20031;-93
2022/05/23 15:58:53;;;;;;;6.70;1.92;;;;;;;;;;6255165;23;20012;-92
2022/05/23 16:01:25;;;;;;;7.15;1.90;;;;;;;;;;6230365;23;20078;-92
2022/05/23 16:03:57;;;;;;;8.38;2.10;;;;;;;;;;6219014;23;20107;-93
2022/05/23 16:06:29;;;;;;;6.10;1.90;;;;;;;;;;6218030;23;20103;-92
2022/05/23 16:09:22;;;;;;;3.38;1.83;;;;;;;;;;6253510;23;20012;-93
2022/05/23 16:11:53;;;;;;;5.43;1.63;;;;;;;;;;6193862;23;20352;-93
2022/05/23 16:14:24;;;;;;;5.28;1.60;;;;;;;;;;6243382;23;20027;-92
2022/05/23 16:16:58;;;;;;;5.20;1.73;;;;;;;;;;6278704;22;20016;-93
2022/05/23 16:19:29;;;;;;;5.10;1.63;;;;;;;;;;6219316;23;20024;-91
2022/05/23 16:22:03;;;;;;;3.70;1.85;;;;;;;;;;6256367;23;20058;-91
2022/05/23 16:24:33;;;;;;;3.65;1.90;;;;;;;;;;6218819;22;20031;-91
2022/05/23 16:27:21;;;;;;;2.90;1.60;;;;;;;;;;6249434;23;20020;-92
2022/05/23 16:29:53;;;;;;;3.58;1.50;;;;;;;;;;6243319;23;20059;-93
2022/05/23 16:38:19;;;;;;;3.25;1.50;;;;;;;;;;6227504;23;20511;-91
2022/05/23 16:40:47;;;;;;;4.15;1.85;;;;;;;;;;6192812;23;20082;-91
2022/05/23 16:43:16;;;;;;;4.35;1.92;;;;;;;;;;6192638;23;20024;-90
2022/05/23 16:45:47;;;;;;;4.55;1.95;;;;;;;;;;6277470;22;20020;-91
2022/05/23 16:48:16;;;;;;;5.82;1.77;;;;;;;;;;6251733;23;20047;-89
2022/05/23 16:50:43;;;;;;;5.45;1.60;;;;;;;;;;6216351;23;20421;-90
2022/05/23 16:53:15;;;;;;;2.85;1.58;;;;;;;;;;6275324;22;20024;-89
2022/05/23 16:55:43;;;;;;;5.82;2.30;;;;;;;;;;6256096;23;20012;-92
2022/05/23 16:58:11;;;;;;;4.70;1.83;;;;;;;;;;6270233;22;20354;-94
2022/05/23 17:00:45;;;;;;;2.88;1.15;;;;;;;;;;6220854;23;20032;-93
2022/05/23 17:03:18;;;;;;;2.97;1.85;;;;;;;;;;6255244;23;20062;-94
2022/05/23 17:05:45;;;;;;;5.13;1.70;;;;;;;;;;6229832;23;20027;-93
2022/05/23 17:08:13;;;;;;;4.10;1.70;;;;;;;;;;6219862;23;20024;-96
2022/05/23 17:10:46;;;;;;;3.33;1.48;;;;;;;;;;6220656;23;20028;-95
2022/05/23 17:13:37;;;;;;;2.90;1.73;;;;;;;;;;6195187;23;20016;-95
2022/05/23 17:16:29;;;;;;;3.65;1.70;;;;;;;;;;6220559;23;20442;-95
2022/05/23 17:18:57;;;;;;;3.90;1.75;;;;;;;;;;6246747;23;20104;-94
2022/05/23 17:21:25;;;;;;;3.63;1.60;;;;;;;;;;6257539;23;20020;-94
2022/05/23 17:23:53;;;;;;;4.85;1.50;;;;;;;;;;6257256;23;20016;-93
2022/05/23 17:26:21;;;;;;;6.20;1.70;;;;;;;;;;6221038;23;20028;-95
2022/05/23 17:28:53;;;;;;;4.40;1.92;;;;;;;;;;6245980;23;20062;-93
2022/05/23 17:31:21;;;;;;;3.75;2.00;;;;;;;;;;6253491;23;20020;-90